Aviation Digital Data Service (ADDS)

Output produced by METARs form (1734 UTC 27 May 2017)
found at http://www.aviationweather.gov/adds/metars/
 
KJAC 271728Z 2718/2818 35007KT P6SM SCT050 
     FM280200 02007KT P6SM FEW060 AMD LTD TO CLD VIS AND WIND
       
KJAN 271721Z 2718/2818 20009KT P6SM BKN025 BKN050 
     FM272300 20009KT P6SM BKN050 BKN250 
     FM281000 19007KT P6SM BKN015 BKN250
       
KJAX 271720Z 2718/2818 22006KT P6SM SKC 
     FM280000 19004KT P6SM SKC 
     FM280900 24003KT 5SM BR SCT005 
     FM281300 26008KT P6SM SCT035
       
KJBR 271314Z 2713/2812 20013KT P6SM SCT025 BKN150 
     FM271500 22013G20KT P6SM BKN030 
     FM271800 22013G20KT P6SM BKN040 
     FM280000 20012KT P6SM BKN050 
     FM280300 19010KT P6SM VCTS SCT020 BKN050CB 
     TEMPO 2803/2805 32020G35KT 1SM +TSRA OVC020CB 
     FM280700 30010KT P6SM BKN007
       
KJFK 271437Z 2715/2818 VRB05KT P6SM BKN040 
     FM271700 21007KT P6SM BKN040 
     FM271900 17009KT P6SM BKN045 
     FM280100 14005KT P6SM BKN035 
     FM280900 12007KT P6SM SCT020 BKN035 
     TEMPO 2809/2813 BKN020
       
KJER 271733Z 2718/2818 VRB05KT P6SM SKC 
     FM280400 08010KT P6SM SKC
       
KJHW 271506Z 2715/2812 VRB03KT P6SM BKN025 
     FM272000 33004KT P6SM BKN035 
     FM272300 03005KT P6SM FEW250 
     FM280300 07005KT P6SM FEW250 AMD LTD TO CLD VIS AND WIND
       
KJMS 271354Z 2714/2812 27008KT P6SM FEW250 
     FM271600 27012G20KT P6SM FEW090 
     FM272300 29016G24KT P6SM VCTS BKN100CB 
     FM280200 31010KT P6SM VCSH BKN100 
     FM280400 30006KT P6SM SCT120
       
KJST 271539Z 2716/2812 19005KT P6SM VCSH OVC008 
     TEMPO 2716/2718 BKN013 OVC020 
     FM271800 VRB03KT P6SM BKN015 BKN040 
     FM280300 VRB02KT 3SM BR VCFG SCT100